• Join FlightAware (Why Join?)
  • Login
  • US Flag 
06:24AM EDT


 

Airport Tracker/Info


-or-


 

Live Flight TrackerFlight Track Log ✈ DAL268 ✈ 11-May-2013 ✈ KJFK - LLBG / TLV

Flight Track Log - Related Links

Times and Time Zones

All times are in EDT time to prevent confusion due to time zone crossing. See the DAL268 flight status page for this flight to view local times or setup timezone preferences in your user account.

Time Position Orientation Groundspeed Altitude Reporting Facility
EDT Latitude Longitude Course Direction KTS MPH feet Rate Location/Type
12:16AM 40.6160 -73.7900 211° Southwest 170 196 900  Level FlightAware
12:17AM 40.5970 -73.8030 207° Southwest 187 215 1,600 1,320 Climbing FlightAware
12:17AM 40.5840 -73.8070 193° South 214 246 1,800 780 Climbing FlightAware
12:17AM 40.5540 -73.7970 166° South 252 290 2,200 840 Climbing FlightAware
12:18AM 40.5300 -73.7710 141° Southeast 280 322 2,600 1,020 Climbing FlightAware
12:18AM 40.5200 -73.7460 118° Southeast 296 341 2,900 1,560 Climbing FlightAware
12:18AM 40.5160 -73.7210 102° East 304 350 3,400 1,980 Climbing FlightAware
12:19AM 40.5300 -73.6730 69° East 311 358 4,400 2,100 Climbing FlightAware
12:19AM 40.5420 -73.6590 42° Northeast 315 362 4,800 2,880 Climbing FlightAware
12:19AM 40.5652 -73.6400 32° Northeast 314 361 5,600 2,460 Climbing FlightAware ADS-B
12:19AM 40.5846 -73.6257 29° Northeast 321 369 6,100 2,100 Climbing FlightAware ADS-B
12:20AM 40.6041 -73.6115 29° Northeast 321 369 6,700 2,400 Climbing FlightAware ADS-B
12:20AM 40.6248 -73.5967 28° Northeast 323 372 7,300 2,280 Climbing FlightAware ADS-B
12:20AM 40.6509 -73.5811 24° Northeast 327 376 8,000 2,220 Climbing FlightAware ADS-B
12:21AM 40.6835 -73.5619 24° Northeast 329 379 8,900 2,220 Climbing FlightAware ADS-B
12:21AM 40.7066 -73.5483 24° Northeast 336 387 9,500 2,100 Climbing FlightAware ADS-B
12:21AM 40.7524 -73.5205 25° Northeast 344 396 10,600 1,380 Climbing FlightAware ADS-B
12:22AM 40.8230 -73.4780 24° Northeast 381 438 11,400 1,020 Climbing FlightAware
12:23AM 40.8910 -73.4360 25° Northeast 418 481 12,100 1,380 Climbing FlightAware
12:24AM 40.9640 -73.3920 24° Northeast 437 503 13,300 1,860 Climbing FlightAware
12:24AM 41.0460 -73.3430 24° Northeast 451 519 14,800 2,040 Climbing FlightAware
12:25AM 41.1220 -73.2900 28° Northeast 468 539 16,200 2,100 Climbing FlightAware
12:26AM 41.1960 -73.2050 41° Northeast 477 549 17,800 2,100 Climbing FlightAware
12:26AM 41.2660 -73.1270 40° Northeast 483 556 19,200 1,260 Climbing FlightAware
12:27AM 41.3290 -73.0590 39° Northeast 488 562 19,500 1,260 Climbing FlightAware
12:28AM 41.4010 -72.9760 41° Northeast 495 570 20,900 1,740 Climbing FlightAware
12:29AM 41.4920 -72.8640 43° Northeast 505 581 22,300 1,980 Climbing FlightAware
12:29AM 41.5790 -72.7550 43° Northeast 521 600 24,200 1,800 Climbing FlightAware
12:30AM 41.6520 -72.6550 46° Northeast 533 613 25,000 600 Climbing FlightAware
12:31AM 41.6980 -72.5720 53° Northeast 533 613 25,000  Level FlightAware
12:32AM 41.7610 -72.4600 53° Northeast 533 613 25,000  Level FlightAware
12:32AM 41.8120 -72.3700 53° Northeast 533 613 25,000  Level FlightAware
12:33AM 41.8620 -72.2810 53° Northeast 533 613 25,000  Level FlightAware
12:34AM 41.9130 -72.1910 53° Northeast 533 613 25,000 3,000 Level FlightAware
12:34AM 41.6690 -72.6190 233° Southwest 29,000 5,100 Climbing FlightAware
12:35AM 42.0031 -71.9092 233° Southwest 566 651 29,800 1,680 Climbing Boston Center
12:36AM 42.1233 -71.7739 40° Northeast 561 646 31,700 1,500 Climbing Boston Center
12:37AM 42.2475 -71.6519 36° Northeast 556 640 32,900 480 Climbing Boston Center
12:38AM 42.4131 -71.4897 36° Northeast 562 647 32,900  Level Boston Center
12:39AM 42.5658 -71.3350 37° Northeast 567 652 32,900  Level Boston Center
12:40AM 42.6897 -71.2086 37° Northeast 567 652 32,900  Level Boston Center
12:46AM 43.4110 -70.4560 37° Northeast 562 647 33,000  Climbing FlightAware
12:47AM 43.5060 -70.3560 37° Northeast 562 647 33,000  Level FlightAware
12:47AM 43.5880 -70.2680 38° Northeast 563 648 33,000  Level FlightAware
12:48AM 43.6780 -70.1720 38° Northeast 563 648 33,000  Level FlightAware
12:49AM 43.7620 -70.0810 38° Northeast 564 649 33,000 -60 Level FlightAware
12:50AM 43.9060 -69.9280 37° Northeast 565 650 32,900  Descending FlightAware
12:50AM 43.9880 -69.8390 38° Northeast 570 656 33,000  Climbing FlightAware
12:51AM 44.0810 -69.7380 38° Northeast 571 657 32,900  Descending FlightAware
12:52AM 44.1650 -69.6470 38° Northeast 573 659 33,000 60 Climbing FlightAware
12:53AM 44.2610 -69.5420 38° Northeast 575 662 33,000  Level FlightAware
12:53AM 44.3420 -69.4540 38° Northeast 576 663 33,000  Level FlightAware
12:54AM 44.4260 -69.3620 38° Northeast 576 663 33,000  Level FlightAware
12:55AM 44.5230 -69.2540 38° Northeast 575 662 33,000  Level FlightAware
12:56AM 44.6190 -69.1480 38° Northeast 574 661 33,000  Level FlightAware
12:56AM 44.7210 -69.0340 38° Northeast 573 659 33,000  Level FlightAware
12:57AM 44.8030 -68.9410 39° Northeast 577 664 33,000 -120 Level FlightAware
12:58AM 44.8970 -68.8380 38° Northeast 580 667 32,900  Descending FlightAware
12:58AM 44.9770 -68.7450 39° Northeast 581 669 33,000 60 Climbing FlightAware
12:59AM 45.0770 -68.6330 38° Northeast 586 674 33,000  Level FlightAware
01:00AM 45.1620 -68.5370 39° Northeast 587 676 33,000 -120 Level FlightAware
01:01AM 45.2560 -68.4280 39° Northeast 587 676 32,900  Descending FlightAware
01:01AM 45.3400 -68.3340 38° Northeast 585 673 33,000  Climbing FlightAware
01:02AM 45.4220 -68.2400 39° Northeast 584 672 32,900 -120 Descending FlightAware
01:03AM 45.5190 -68.1260 39° Northeast 582 670 32,900 60 Level FlightAware
01:03AM 45.5920 -68.0410 39° Northeast 582 670 33,000 60 Climbing FlightAware
01:04AM 45.6790 -67.9410 39° Northeast 583 671 33,000 -120 Level FlightAware
01:05AM 45.7730 -67.8300 39° Northeast 585 673 32,900  Descending FlightAware
01:05AM 45.8580 -67.7290 40° Northeast 584 672 33,000 60 Climbing FlightAware
01:06AM 45.9420 -67.6280 40° Northeast 582 670 33,000 -120 Level FlightAware
01:07AM 46.0240 -67.5300 40° Northeast 567 652 32,900  Descending FlightAware
01:07AM 46.1010 -67.4400 39° Northeast 569 655 33,000  Climbing FlightAware
01:08AM 46.2260 -67.2910 39° Northeast 567 652 33,000  Level FlightAware
01:09AM 46.2950 -67.2090 39° Northeast 567 652 33,000  Level FlightAware
01:10AM 46.3640 -67.1280 39° Northeast 567 652 33,000  Level FlightAware
01:10AM 46.4340 -67.0470 39° Northeast 567 652 33,000  Level FlightAware
01:11AM 46.5030 -66.9650 39° Northeast 567 652 33,000  Level FlightAware
01:12AM 46.5890 -66.8630 39° Northeast 567 652 33,000  Level FlightAware
01:13AM 46.6590 -66.7810 39° Northeast 567 652 33,000  Level FlightAware
01:13AM 46.7280 -66.7000 39° Northeast 567 652 33,000  Level FlightAware
01:14AM 46.7970 -66.6180 39° Northeast 567 652 33,000  Level FlightAware
01:15AM 46.8670 -66.5360 39° Northeast 567 652 33,000  Level FlightAware
01:15AM 46.9530 -66.4330 39° Northeast 567 652 33,000  Level FlightAware
01:16AM 47.0230 -66.3510 39° Northeast 567 652 33,000  Level FlightAware
01:17AM 47.0920 -66.2680 39° Northeast 567 652 33,000  Level FlightAware
01:17AM 47.1610 -66.1860 39° Northeast 567 652 33,000 -120 Level FlightAware
01:18AM 47.3167 -65.9167 39° Northeast 540 621 32,900 -120 Descending Gander Center
01:19AM 47.4000 -65.8000 43° Northeast 540 621 32,900  Level Moncton Center
01:20AM 47.5333 -65.6333 40° Northeast 540 621 32,900  Level Moncton Center
01:21AM 47.6333 -65.5167 38° Northeast 540 621 32,900  Level Moncton Center
01:22AM 47.7500 -65.3500 44° Northeast 540 621 32,900  Level Moncton Center
01:23AM 47.8667 -65.2000 41° Northeast 540 621 32,900  Level Moncton Center
01:24AM 47.9833 -65.0500 41° Northeast 540 621 32,900  Level Moncton Center
01:25AM 48.0833 -64.9000 45° Northeast 540 621 32,900  Level Moncton Center
01:26AM 48.2000 -64.7667 37° Northeast 540 621 32,900  Level Moncton Center
01:27AM 48.3167 -64.6167 41° Northeast 550 633 32,900  Level Moncton Center
01:28AM 48.4333 -64.4667 40° Northeast 550 633 32,900  Level Moncton Center
01:29AM 48.5667 -64.3167 37° Northeast 550 633 32,900  Level Moncton Center
01:30AM 48.6833 -64.2000 33° Northeast 550 633 32,900  Level Moncton Center
01:31AM 48.8000 -64.0333 43° Northeast 560 644 32,900  Level Moncton Center
01:32AM 48.9167 -63.9167 33° Northeast 550 633 32,900  Level Moncton Center
01:33AM 49.0500 -63.7667 36° Northeast 550 633 32,900 120 Level Moncton Center
01:34AM 49.1667 -63.6000 43° Northeast 550 633 33,200 360 Climbing Moncton Center
01:34AM 49.2000 -63.5833 18° North 550 633 33,400 600 Climbing Gander Center
01:35AM 49.3167 -63.4333 40° Northeast 550 633 34,000 240 Climbing Gander Center
01:36AM 49.4333 -63.2833 40° Northeast 550 633 33,900 -60 Descending Gander Center
01:37AM 49.5500 -63.1333 40° Northeast 550 633 33,900  Level Gander Center
01:38AM 49.6667 -62.9833 40° Northeast 550 633 34,000  Climbing Gander Center
01:39AM 49.7667 -62.8667 37° Northeast 540 621 34,000  Level Moncton Center
01:40AM 49.8833 -62.7333 36° Northeast 550 633 34,000  Level Moncton Center
01:40AM 49.9167 -62.6833 44° Northeast 540 621 34,000 -120 Level Gander Center
01:41AM 50.0167 -62.5500 41° Northeast 530 610 33,900 -60 Descending Gander Center
01:42AM 50.1500 -62.4000 36° Northeast 530 610 33,900  Level Gander Center
01:43AM 50.2500 -62.2500 44° Northeast 540 621 34,000  Climbing Gander Center
01:44AM 50.3667 -62.1000 39° Northeast 540 621 34,000 -60 Level Gander Center
01:45AM 50.4667 -61.9833 37° Northeast 540 621 33,900 -120 Descending Moncton Center
01:45AM 50.4833 -61.9333 62° Northeast 530 610 33,900 60 Level Gander Center
01:46AM 50.6000 -61.7833 39° Northeast 540 621 34,000  Climbing Gander Center
01:47AM 50.7167 -61.6333 39° Northeast 550 633 34,000 -60 Level Gander Center
01:48AM 50.8167 -61.5333 32° Northeast 550 633 33,900 -60 Descending Moncton Center
01:49AM 50.9333 -61.3667 42° Northeast 540 621 33,900  Level Moncton Center
01:49AM 50.9500 -61.3333 52° Northeast 540 621 33,900  Level Gander Center
01:50AM 51.0667 -61.1833 39° Northeast 540 621 33,900  Level Gander Center
01:51AM 51.1667 -61.0500 40° Northeast 540 621 34,000  Climbing Gander Center
01:52AM 51.2833 -60.8833 42° Northeast 530 610 34,000  Level Gander Center
01:53AM 51.4000 -60.7167 42° Northeast 530 610 34,000 -60 Level Gander Center
01:54AM 51.4833 -60.6000 41° Northeast 530 610 33,900  Descending Moncton Center
01:55AM 51.6000 -60.4333 42° Northeast 530 610 34,000  Climbing Moncton Center
01:56AM 51.7167 -60.2833 39° Northeast 530 610 33,900 -120 Descending Moncton Center
01:56AM 51.7333 -60.2500 51° Northeast 530 610 33,900 60 Level Gander Center
01:57AM 51.8500 -60.0833 41° Northeast 530 610 34,000  Climbing Gander Center
01:58AM 51.9333 -59.9667 41° Northeast 530 610 33,900 -60 Descending Moncton Center
01:59AM 52.0500 -59.8333 35° Northeast 530 610 33,900  Level Moncton Center
01:59AM 52.0833 -59.7833 43° Northeast 530 610 33,900 60 Level Gander Center
02:00AM 52.1833 -59.6167 46° Northeast 530 610 34,000  Climbing Gander Center
02:01AM 52.3000 -59.4500 41° Northeast 530 610 34,000  Level Gander Center
02:02AM 52.4167 -59.3167 35° Northeast 530 610 34,000  Level Gander Center
02:03AM 52.5167 -59.1333 48° Northeast 530 610 34,000  Level Gander Center
02:04AM 52.6167 -58.9667 45° Northeast 540 621 34,000  Level Gander Center
02:05AM 52.7167 -58.8500 35° Northeast 540 621 34,000 -60 Level Moncton Center
02:06AM 52.8167 -58.7000 42° Northeast 540 621 33,900 -60 Descending Moncton Center
02:07AM 52.9333 -58.5167 43° Northeast 540 621 33,900  Level Moncton Center
02:07AM 52.9667 -58.4833 31° Northeast 540 621 33,900  Level Gander Center
02:08AM 53.0333 -58.3333 53° Northeast 540 621 33,900  Level Moncton Center
02:09AM 53.1500 -58.1833 38° Northeast 550 633 33,900  Level Moncton Center
02:09AM 53.1833 -58.1333 42° Northeast 540 621 33,900 60 Level Gander Center
02:10AM 53.3000 -57.9500 43° Northeast 540 621 34,000  Climbing Gander Center
02:11AM 53.3833 -57.8333 40° Northeast 540 621 33,900  Descending Moncton Center
02:12AM 53.4833 -57.6500 47° Northeast 540 621 34,000  Climbing Moncton Center
02:13AM 53.6000 -57.4833 40° Northeast 540 621 33,900 -120 Descending Moncton Center
02:13AM 53.6167 -57.4500 50° Northeast 540 621 33,900 60 Level Gander Center
02:14AM 53.7333 -57.2667 43° Northeast 540 621 34,000  Climbing Gander Center
02:15AM 53.8500 -57.0833 43° Northeast 540 621 33,900 -60 Descending Gander Center
02:16AM 53.9500 -56.9000 47° Northeast 540 621 33,900  Level Gander Center
02:17AM 54.0667 -56.7500 37° Northeast 540 621 34,000  Climbing Gander Center
02:18AM 54.1500 -56.5667 52° Northeast 540 621 33,900 -60 Descending Gander Center
02:19AM 54.2833 -56.3833 39° Northeast 540 621 33,900  Level Gander Center
02:20AM 54.3667 -56.2500 43° Northeast 540 621 34,000  Climbing Moncton Center
02:20AM 54.3833 -56.2000 60° Northeast 540 621 33,900 -120 Descending Gander Center
02:21AM 54.5000 -56.0167 42° Northeast 550 633 33,900  Level Gander Center
02:22AM 54.6000 -55.8333 47° Northeast 550 633 34,000  Climbing Gander Center
02:23AM 54.6667 -55.5833 65° Northeast 550 633 33,900  Descending Gander Center
02:24AM 54.7500 -55.3667 56° Northeast 550 633 34,000  Climbing Gander Center
02:25AM 54.8000 -55.1333 70° East 550 633 33,900 -60 Descending Gander Center
02:26AM 54.8667 -54.8667 66° East 560 644 33,900  Level Gander Center
02:27AM 54.9000 -54.6833 72° East 560 644 33,900 60 Level Moncton Center
02:27AM 54.9167 -54.6167 66° East 560 644 34,000  Climbing Gander Center
02:28AM 55.0000 -54.3667 60° Northeast 560 644 33,900  Descending Gander Center
02:29AM 55.0500 -54.1667 66° East 560 644 34,000  Climbing Gander Center
02:30AM 55.1167 -53.8833 68° East 560 644 33,900 -60 Descending Gander Center
02:31AM 55.1667 -53.6667 68° East 560 644 33,900  Level Gander Center
02:32AM 55.2167 -53.4167 71° East 560 644 33,900  Level Gander Center
02:33AM 55.2833 -53.1500 66° East 560 644 34,000  Climbing Gander Center
02:34AM 55.3333 -52.9000 71° East 560 644 33,900 -60 Descending Gander Center
02:35AM 55.4000 -52.6500 65° Northeast 560 644 33,900  Level Gander Center
02:36AM 55.4667 -52.4000 65° Northeast 560 644 33,900  Level Gander Center
02:37AM 55.5167 -52.1500 70° East 560 644 34,000  Climbing Gander Center
02:38AM 55.5833 -51.9000 65° Northeast 560 644 34,000 -60 Level Gander Center
02:39AM 55.6333 -51.6167 73° East 560 644 33,900 -60 Descending Gander Center
02:40AM 55.6833 -51.4167 66° East 280 322 33,900  Level Gander Center
02:41AM 55.7167 -51.2000 75° East 310 357 34,000  Climbing Gander Center
02:42AM 55.8000 -50.8833 65° Northeast 520 598 33,900  Descending Gander Center
02:44AM 55.9069 -50.4157 68° East  Level FlightAware Approximate
02:51AM 56.1736 -48.6775 76° East  Level FlightAware Approximate
02:52AM 56.2063 -48.4252 77° East  Level FlightAware Approximate
02:53AM 56.2390 -48.1728 77° East  Level FlightAware Approximate
02:54AM 56.2711 -47.9199 77° East  Level FlightAware Approximate
02:55AM 56.3028 -47.6666 77° East  Level FlightAware Approximate
02:56AM 56.3339 -47.4129 77° East  Level FlightAware Approximate
02:57AM 56.3645 -47.1588 78° East  Level FlightAware Approximate
02:58AM 56.3946 -46.9043 78° East  Level FlightAware Approximate
02:59AM 56.4242 -46.6494 78° East  Level FlightAware Approximate
03:00AM 56.4533 -46.3941 78° East  Level FlightAware Approximate
03:01AM 56.4818 -46.1384 78° East  Level FlightAware Approximate
03:02AM 56.5098 -45.8823 79° East  Level FlightAware Approximate
03:03AM 56.5372 -45.6259 79° East  Level FlightAware Approximate
03:04AM 56.5642 -45.3690 79° East  Level FlightAware Approximate
03:05AM 56.5906 -45.1118 79° East  Level FlightAware Approximate
03:06AM 56.6165 -44.8543 80° East  Level FlightAware Approximate
03:07AM 56.6418 -44.5964 80° East  Level FlightAware Approximate
03:08AM 56.6666 -44.3382 80° East  Level FlightAware Approximate
03:09AM 56.6909 -44.0796 80° East  Level FlightAware Approximate
03:10AM 56.7146 -43.8207 80° East  Level FlightAware Approximate
03:11AM 56.7379 -43.5615 81° East  Level FlightAware Approximate
03:12AM 56.7605 -43.3019 81° East  Level FlightAware Approximate
03:13AM 56.7827 -43.0421 81° East  Level FlightAware Approximate
03:14AM 56.8042 -42.7819 81° East  Level FlightAware Approximate
03:15AM 56.8253 -42.5215 81° East  Level FlightAware Approximate
03:16AM 56.8458 -42.2607 82° East  Level FlightAware Approximate
03:17AM 56.8657 -41.9997 82° East  Level FlightAware Approximate
03:18AM 56.8852 -41.7384 82° East  Level FlightAware Approximate
03:19AM 56.9040 -41.4769 82° East  Level FlightAware Approximate
03:20AM 56.9224 -41.2150 83° East  Level FlightAware Approximate
03:21AM 56.9401 -40.9529 83° East  Level FlightAware Approximate
03:22AM 56.9574 -40.6906 83° East  Level FlightAware Approximate
03:23AM 56.9740 -40.4287 83° East  Level FlightAware Approximate
03:24AM 56.9901 -40.1666 83° East  Level FlightAware Approximate
03:25AM 57.0028 -39.9039 87° East  Level FlightAware Approximate
03:26AM 57.0099 -39.6403 87° East  Level FlightAware Approximate
03:27AM 57.0165 -39.3765 87° East  Level FlightAware Approximate
03:28AM 57.0226 -39.1127 87° East  Level FlightAware Approximate
03:29AM 57.0281 -38.8489 88° East  Level FlightAware Approximate
03:30AM 57.0330 -38.5849 88° East  Level FlightAware Approximate
03:31AM 57.0405 -38.3211 87° East  Level FlightAware Approximate
03:32AM 57.0477 -38.0572 87° East  Level FlightAware Approximate
03:33AM 57.0544 -37.7932 87° East  Level FlightAware Approximate
03:34AM 57.0605 -37.5292 87° East  Level FlightAware Approximate
03:35AM 57.0660 -37.2650 88° East  Level FlightAware Approximate
03:36AM 57.0709 -37.0008 88° East  Level FlightAware Approximate
03:37AM 57.0754 -36.7365 88° East  Level FlightAware Approximate
03:38AM 57.0792 -36.4721 88° East  Level FlightAware Approximate
03:39AM 57.0825 -36.2077 89° East  Level FlightAware Approximate
03:40AM 57.0853 -35.9433 89° East  Level FlightAware Approximate
03:41AM 57.0875 -35.6788 89° East  Level FlightAware Approximate
03:42AM 57.0891 -35.4143 89° East  Level FlightAware Approximate
03:43AM 57.0902 -35.1498 89° East  Level FlightAware Approximate
03:44AM 57.0907 -34.8852 90° East  Level FlightAware Approximate
03:45AM 57.0907 -34.6207 90° East  Level FlightAware Approximate
03:46AM 57.0901 -34.3562 90° East  Level FlightAware Approximate
03:47AM 57.0889 -34.0916 90° East  Level FlightAware Approximate
03:48AM 57.0872 -33.8271 91° East  Level FlightAware Approximate
03:49AM 57.0849 -33.5626 91° East  Level FlightAware Approximate
03:50AM 57.0821 -33.2982 91° East  Level FlightAware Approximate
03:51AM 57.0788 -33.0338 91° East  Level FlightAware Approximate
03:52AM 57.0748 -32.7695 91° East  Level FlightAware Approximate
03:53AM 57.0703 -32.5052 92° East  Level FlightAware Approximate
03:54AM 57.0653 -32.2409 92° East  Level FlightAware Approximate
03:55AM 57.0597 -31.9768 92° East  Level FlightAware Approximate
03:56AM 57.0535 -31.7127 92° East  Level FlightAware Approximate
03:57AM 57.0468 -31.4488 93° East  Level FlightAware Approximate
03:58AM 57.0395 -31.1849 93° East  Level FlightAware Approximate
03:59AM 57.0317 -30.9211 93° East  Level FlightAware Approximate
04:00AM 57.0233 -30.6575 93° East  Level FlightAware Approximate
04:01AM 57.0144 -30.3940 93° East  Level FlightAware Approximate
04:02AM 57.0049 -30.1306 94° East  Level FlightAware Approximate
04:03AM 56.9921 -29.8678 96° East  Level FlightAware Approximate
04:04AM 56.9759 -29.6057 96° East  Level FlightAware Approximate
04:05AM 56.9591 -29.3438 97° East  Level FlightAware Approximate
04:06AM 56.9419 -29.0822 97° East  Level FlightAware Approximate
04:07AM 56.9240 -28.8208 97° East  Level FlightAware Approximate
04:08AM 56.9057 -28.5597 97° East  Level FlightAware Approximate
04:09AM 56.8868 -28.2988 97° East  Level FlightAware Approximate
04:10AM 56.8673 -28.0382 98° East  Level FlightAware Approximate
04:11AM 56.8473 -27.7778 98° East  Level FlightAware Approximate
04:12AM 56.8268 -27.5178 98° East  Level FlightAware Approximate
04:13AM 56.8057 -27.2580 98° East  Level FlightAware Approximate
04:14AM 56.7841 -26.9986 99° East  Level FlightAware Approximate
04:15AM 56.7620 -26.7394 99° East  Level FlightAware Approximate
04:16AM 56.7393 -26.4805 99° East  Level FlightAware Approximate
04:17AM 56.7161 -26.2220 99° East  Level FlightAware Approximate
04:18AM 56.6923 -25.9638 99° East  Level FlightAware Approximate
04:19AM 56.6680 -25.7059 100° East  Level FlightAware Approximate
04:20AM 56.6432 -25.4483 100° East  Level FlightAware Approximate
04:21AM 56.6179 -25.1911 100° East  Level FlightAware Approximate
04:22AM 56.5920 -24.9342 100° East  Level FlightAware Approximate
04:23AM 56.5656 -24.6777 100° East  Level FlightAware Approximate
04:24AM 56.5386 -24.4216 101° East  Level FlightAware Approximate
04:25AM 56.5114 -24.1658 101° East  Level FlightAware Approximate
04:26AM 56.4843 -23.9100 101° East  Level FlightAware Approximate
04:27AM 56.4568 -23.6546 101° East  Level FlightAware Approximate
04:28AM 56.4288 -23.3996 101° East  Level FlightAware Approximate
04:29AM 56.4002 -23.1449 101° East  Level FlightAware Approximate
04:30AM 56.3710 -22.8898 102° East  Level FlightAware Approximate
04:31AM 56.3413 -22.6351 102° East  Level FlightAware Approximate
04:32AM 56.3110 -22.3807 102° East  Level FlightAware Approximate
04:33AM 56.2803 -22.1268 102° East  Level FlightAware Approximate
04:34AM 56.2490 -21.8733 102° East  Level FlightAware Approximate
04:35AM 56.2172 -21.6202 103° East  Level FlightAware Approximate
04:36AM 56.1849 -21.3675 103° East  Level FlightAware Approximate
04:37AM 56.1520 -21.1152 103° East  Level FlightAware Approximate
04:38AM 56.1187 -20.8634 103° East  Level FlightAware Approximate
04:39AM 56.0848 -20.6121 103° East  Level FlightAware Approximate
04:40AM 56.0505 -20.3611 104° East  Level FlightAware Approximate
04:41AM 56.0156 -20.1106 104° East  Level FlightAware Approximate
04:42AM 55.9875 -19.8580 99° East  Level FlightAware Approximate
04:43AM 55.9647 -19.6035 99° East  Level FlightAware Approximate
04:44AM 55.9413 -19.3493 99° East  Level FlightAware Approximate
04:45AM 55.9174 -19.0954 99° East  Level FlightAware Approximate
04:46AM 55.8930 -18.8418 100° East  Level FlightAware Approximate
04:47AM 55.8681 -18.5885 100° East  Level FlightAware Approximate
04:48AM 55.8427 -18.3356 100° East  Level FlightAware Approximate
04:49AM 55.8167 -18.0830 100° East  Level FlightAware Approximate
04:50AM 55.7902 -17.8308 100° East  Level FlightAware Approximate
04:51AM 55.7633 -17.5797 101° East  Level FlightAware Approximate
04:52AM 55.7359 -17.3290 101° East  Level FlightAware Approximate
04:53AM 55.7080 -17.0787 101° East  Level FlightAware Approximate
04:54AM 55.6796 -16.8287 101° East  Level FlightAware Approximate
04:55AM 55.6506 -16.5791 102° East  Level FlightAware Approximate
04:55AM 54.5380 -13.1640 102° East 538 619 35,000  Level FlightAware
04:56AM 55.6212 -16.3299 102° East  Level FlightAware Approximate
04:57AM 55.5912 -16.0810 102° East  Level FlightAware Approximate
04:57AM 54.4490 -12.8290 114° Southeast 538 619 35,000  Level FlightAware
04:57AM 54.4120 -12.6890 114° Southeast 538 619 35,000  Level FlightAware
04:58AM 54.3740 -12.5500 115° Southeast 537 618 35,000  Level FlightAware
04:58AM 54.3450 -12.4420 115° Southeast 536 617 35,000  Level FlightAware
04:59AM 54.2890 -12.2280 114° Southeast 536 617 35,000  Level FlightAware
05:00AM 54.2390 -12.0540 116° Southeast 536 617 35,000  Level FlightAware
05:01AM 54.1940 -11.8900 115° Southeast 536 617 35,000  Level FlightAware
05:01AM 54.1670 -11.7910 115° Southeast 535 616 35,000  Level FlightAware
05:02AM 54.1120 -11.5970 116° Southeast 532 612 35,000  Level FlightAware
05:03AM 54.0200 -11.2740 116° Southeast 532 612 35,000  Level FlightAware
05:04AM 53.9490 -11.0240 116° Southeast 532 612 35,000  Level FlightAware
05:05AM 53.9160 -10.9110 116° Southeast 533 613 35,000  Level FlightAware
05:05AM 53.8770 -10.7720 115° Southeast 533 613 35,000  Level FlightAware
05:06AM 53.8420 -10.6550 117° Southeast 532 612 35,000  Level FlightAware
05:07AM 53.7910 -10.4830 117° Southeast 536 617 35,000  Level FlightAware
05:08AM 53.7180 -10.2360 116° Southeast 533 613 35,000  Level FlightAware
05:08AM 53.6820 -10.1140 116° Southeast 532 612 35,000  Level FlightAware
05:09AM 53.6370 -9.9630 117° Southeast 531 611 35,000  Level FlightAware
05:10AM 53.5910 -9.8120 117° Southeast 530 610 35,000  Level FlightAware
05:11AM 53.5350 -9.6290 117° Southeast 528 608 35,000  Level FlightAware
05:12AM 53.4730 -9.4220 117° Southeast 527 606 35,000 540 Level FlightAware
05:12AM 53.4220 -9.2580 118° Southeast 526 605 35,900 1,200 Climbing FlightAware
05:13AM 53.3820 -9.1320 118° Southeast 524 603 36,600 900 Climbing FlightAware
05:13AM 53.3420 -9.0030 117° Southeast 529 609 37,000 -1,440 Climbing FlightAware
05:14AM 53.3226 -8.9396 117° Southeast 478 550 35,400 -2,940 Descending FlightAware UK
05:14AM 53.3021 -8.8742 118° Southeast 478 550 35,400 4,800 Level FlightAware UK
05:14AM 53.3030 -8.8760 118° Southeast 527 606 37,000  Climbing FlightAware
05:14AM 53.2815 -8.8089 118° Southeast 480 552 35,400 -2,880 Descending FlightAware UK
05:15AM 53.2611 -8.7437 118° Southeast 484 557 35,400  Level FlightAware UK
05:15AM 53.2405 -8.6786 118° Southeast 484 557 35,400  Level FlightAware UK
05:15AM 53.2197 -8.6139 118° Southeast 482 555 35,400  Level FlightAware UK
05:16AM 53.1990 -8.5492 118° Southeast 482 555 35,400  Level FlightAware UK
05:16AM 53.1783 -8.4849 118° Southeast 480 552 35,400 3,000 Level FlightAware UK
05:16AM 53.1670 -8.4520 118° Southeast 520 598 37,000  Climbing FlightAware
05:16AM 53.1577 -8.4209 118° Southeast 480 552 35,400 -6,000 Descending FlightAware UK
05:16AM 53.1437 -8.3776 118° Southeast 480 552 35,400  Level FlightAware UK
05:17AM 53.1232 -8.3139 118° Southeast 476 548 35,400  Level FlightAware UK
05:17AM 53.1028 -8.2503 118° Southeast 474 545 35,400  Level FlightAware UK
05:17AM 53.0825 -8.1869 118° Southeast 474 545 35,400  Level FlightAware UK
05:18AM 53.0620 -8.1238 118° Southeast 474 545 35,400 3,840 Level FlightAware UK
05:18AM 53.0570 -8.1090 118° Southeast 517 595 37,000  Climbing FlightAware
05:18AM 53.0346 -8.0398 118° Southeast 478 550 35,400 -2,760 Descending FlightAware UK
05:18AM 53.0139 -7.9768 119° Southeast 478 550 35,400 2,880 Level FlightAware UK
05:18AM 53.0030 -7.9440 119° Southeast 517 595 37,000  Climbing FlightAware
05:19AM 52.9932 -7.9137 119° Southeast 474 545 35,400 -6,420 Descending FlightAware UK
05:19AM 52.9794 -7.8716 119° Southeast 474 545 35,400  Level FlightAware UK
05:19AM 52.9587 -7.8086 119° Southeast 474 545 35,400  Level FlightAware UK
05:19AM 52.9382 -7.7456 118° Southeast 474 545 35,400  Level FlightAware UK
05:20AM 52.9175 -7.6827 119° Southeast 474 545 35,400  Level FlightAware UK
05:20AM 52.8967 -7.6201 119° Southeast 474 545 35,400 3,060 Level FlightAware UK
05:20AM 52.8870 -7.5920 119° Southeast 515 593 37,000  Climbing FlightAware
05:20AM 52.8619 -7.5158 119° Southeast 474 545 35,400  Descending FlightAware UK
05:21AM 52.8520 -7.4880 119° Southeast 516 594 37,000  Climbing FlightAware
05:21AM 52.8272 -7.4118 119° Southeast 474 545 35,400 -2,760 Descending FlightAware UK
05:21AM 52.8063 -7.3492 119° Southeast 474 545 35,400 2,880 Level FlightAware UK
05:21AM 52.7930 -7.3110 119° Southeast 516 594 37,000  Climbing FlightAware
05:22AM 52.7715 -7.2451 119° Southeast 476 548 35,400 -2,940 Descending FlightAware UK
05:22AM 52.7505 -7.1828 119° Southeast 474 545 35,400  Level FlightAware UK
05:22AM 52.7296 -7.1195 119° Southeast 476 548 35,400  Level FlightAware UK
05:23AM 52.7126 -7.0537 113° Southeast 476 548 35,400 3,300 Level FlightAware UK
05:23AM 52.7050 -7.0240 113° Southeast 521 600 37,000  Climbing FlightAware
05:23AM 52.6886 -6.9415 113° Southeast 474 545 35,400  Descending FlightAware UK
05:23AM 52.6830 -6.9150 113° Southeast 520 598 37,000  Climbing FlightAware
05:24AM 52.6682 -6.8276 113° Southeast 474 545 35,400 -2,640 Descending FlightAware UK
05:24AM 52.6559 -6.7592 107° East 474 545 35,400 3,060 Level FlightAware UK
05:24AM 52.6500 -6.7250 107° East 522 601 37,000  Climbing FlightAware
05:24AM 52.6353 -6.6452 107° East 476 548 35,400  Descending FlightAware UK
05:25AM 52.6290 -6.6110 107° East 521 600 37,000  Climbing FlightAware
05:25AM 52.6146 -6.5313 107° East 472 543 35,400 -2,760 Descending FlightAware UK
05:25AM 52.6021 -6.4629 107° East 476 548 35,400 4,140 Level FlightAware UK
05:25AM 52.6010 -6.4590 107° East 524 603 37,000  Climbing FlightAware
05:26AM 52.5853 -6.3715 107° East 478 550 35,400  Descending FlightAware UK
05:26AM 52.5750 -6.3210 107° East 526 605 37,000  Climbing FlightAware
05:26AM 52.5726 -6.3028 107° East 478 550 35,400 -4,800 Descending FlightAware UK
05:26AM 52.5600 -6.2339 107° East 480 552 35,400 2,880 Level FlightAware UK
05:26AM 52.5500 -6.1840 107° East 527 606 37,000  Climbing FlightAware
05:27AM 52.5388 -6.1187 107° East 474 545 35,400 -2,940 Descending FlightAware UK
05:27AM 52.5257 -6.0496 107° East 480 552 35,400 3,840 Level FlightAware UK
05:27AM 52.5230 -6.0380 107° East 532 612 37,000  Climbing FlightAware
05:27AM 52.5081 -5.9564 107° East 482 555 35,400 -2,760 Descending FlightAware UK
05:28AM 52.4950 -5.8866 107° East 482 555 35,400  Level FlightAware UK
05:28AM 52.4774 -5.7937 107° East 484 557 35,400 2,700 Level FlightAware UK
05:28AM 52.4710 -5.7590 107° East 536 617 37,000  Climbing FlightAware
05:29AM 52.4554 -5.6775 107° East 484 557 35,400  Descending FlightAware UK
05:29AM 52.4490 -5.6470 107° East 537 618 37,000  Climbing FlightAware
05:29AM 52.4285 -5.5379 107° East 488 562 35,400  Descending FlightAware UK
05:29AM 52.4230 -5.5110 107° East 538 619 37,000  Climbing FlightAware
05:30AM 52.4061 -5.4214 107° East 490 564 35,400  Descending FlightAware UK
05:30AM 52.3960 -5.3720 107° East 538 619 37,000  Climbing FlightAware
05:30AM 52.3834 -5.3052 107° East 488 562 35,400 -2,940 Descending FlightAware UK
05:31AM 52.3699 -5.2356 108° East 490 564 35,400  Level FlightAware UK
05:31AM 52.3565 -5.1659 107° East 488 562 35,400  Level FlightAware UK
05:31AM 52.3428 -5.0965 108° East 486 559 35,400 3,960 Level FlightAware UK
05:31AM 52.3400 -5.0860 108° East 536 617 37,000  Climbing FlightAware
05:32AM 52.3246 -5.0041 108° East 490 564 35,400 -2,700 Descending FlightAware UK
05:32AM 52.3108 -4.9349 108° East 488 562 35,400 3,540 Level FlightAware UK
05:32AM 52.3070 -4.9170 108° East 535 616 37,000  Climbing FlightAware
05:32AM 52.2925 -4.8428 108° East 490 564 35,400 -2,940 Descending FlightAware UK
05:33AM 52.2784 -4.7731 108° East 488 562 35,400 3,840 Level FlightAware UK
05:33AM 52.2760 -4.7600 108° East 533 613 37,000  Climbing FlightAware
05:33AM 52.2598 -4.6816 108° East 486 559 35,400 -2,760 Descending FlightAware UK
05:33AM 52.2460 -4.6130 108° East 486 559 35,400  Level FlightAware UK
05:34AM 52.2320 -4.5447 109° East 488 562 35,400 3,840 Level FlightAware UK
05:34AM 52.2310 -4.5430 109° East 532 612 37,000  Climbing FlightAware
05:34AM 52.2037 -4.4082 109° East 486 559 35,400  Descending FlightAware UK
05:34AM 52.2010 -4.3990 109° East 531 611 37,000  Climbing FlightAware
05:35AM 52.1849 -4.3174 109° East 486 559 35,400 -2,700 Descending FlightAware UK
05:35AM 52.1708 -4.2494 109° East 480 552 35,400 3,000 Level FlightAware UK
05:35AM 52.1640 -4.2180 109° East 529 609 37,000  Climbing FlightAware
05:35AM 52.1473 -4.1363 109° East 484 557 35,400 -2,400 Descending FlightAware UK
05:36AM 52.1285 -4.0460 109° East 484 557 35,400 3,300 Level FlightAware UK
05:36AM 52.1290 -4.0520 109° East 530 610 37,000 2,400 Climbing FlightAware
05:36AM 52.0990 -3.9090 109° East 530 610 37,000 -1,920 Level FlightAware
05:37AM 52.0853 -3.8421 109° East 480 552 35,400 -2,520 Descending FlightAware UK
05:37AM 52.0661 -3.7516 109° East 486 559 35,400 3,180 Level FlightAware UK
05:37AM 52.0630 -3.7430 109° East 533 613 37,000  Climbing FlightAware
05:38AM 52.0370 -3.6156 109° East 492 566 35,400 -120 Descending FlightAware UK
05:38AM 52.0220 -3.5500 109° East 532 612 36,900  Climbing FlightAware
05:38AM 52.0076 -3.4799 109° East 492 566 35,400 -2,700 Descending FlightAware UK
05:39AM 51.9929 -3.4123 109° East 486 559 35,400 5,040 Level FlightAware UK
05:39AM 51.9940 -3.4190 109° East 530 610 37,000  Climbing FlightAware
05:39AM 51.9734 -3.3224 109° East 488 562 35,400  Descending FlightAware UK
05:39AM 51.9610 -3.2660 109° East 528 608 37,000  Climbing FlightAware
05:40AM 51.9441 -3.1874 109° East 490 564 35,400 -2,640 Descending FlightAware UK
05:40AM 51.9293 -3.1205 110° East 484 557 35,400  Level FlightAware UK
05:40AM 51.9148 -3.0534 109° East 480 552 35,400 4,140 Level FlightAware UK
05:40AM 51.9120 -3.0460 109° East 528 608 37,000  Climbing FlightAware
05:41AM 51.8798 -2.8966 109° East 486 559 35,400 -180 Descending FlightAware UK
05:41AM 51.8750 -2.8780 109° East 529 609 36,900  Climbing FlightAware
05:41AM 51.8599 -2.8074 109° East 480 552 35,400 180 Descending FlightAware UK
05:41AM 51.8484 -2.7560 109° East 528 608 37,000 2,340 Climbing FlightAware ADS-B
05:42AM 51.8313 -2.6659 107° East 526 605 36,900 -240 Descending FlightAware ADS-B
05:42AM 51.8299 -2.6542 101° East 524 603 36,900 300 Level FlightAware ADS-B
05:42AM 51.8242 -2.6042 100° East 522 601 37,000 -2,940 Climbing FlightAware ADS-B
05:42AM 51.8176 -2.5341 100° East 488 562 35,400  Descending FlightAware UK
05:43AM 51.8122 -2.4817 100° East 522 601 37,000 1,860 Climbing FlightAware ADS-B
05:43AM 51.7970 -2.3396 100° East 523 602 37,000 -1,920 Level FlightAware ADS-B
05:44AM 51.7904 -2.2803 100° East 490 564 35,400  Descending FlightAware UK
05:44AM 51.7833 -2.2251 100° East 521 600 37,000  Climbing FlightAware ADS-B
05:44AM 51.7705 -2.1201 100° East 494 568 35,400 -180 Descending FlightAware UK
05:44AM 51.7646 -2.0766 100° East 522 601 36,900  Climbing FlightAware ADS-B
05:45AM 51.7556 -2.0054 100° East 496 571 35,400 120 Descending FlightAware UK
05:45AM 51.7472 -1.9442 100° East 517 595 37,000 1,980 Climbing FlightAware ADS-B
05:46AM 51.7316 -1.8281 102° East 514 592 37,000  Level FlightAware ADS-B
05:46AM 51.7166 -1.7160 102° East 513 590 37,000 -1,800 Level FlightAware ADS-B
05:46AM 51.7047 -1.6238 102° East 486 559 35,400  Descending FlightAware UK
05:47AM 51.7000 -1.5891 102° East 512 589 37,000 2,340 Climbing FlightAware ADS-B
05:47AM 51.6854 -1.4696 101° East 513 590 37,000  Level FlightAware ADS-B
05:48AM 51.6714 -1.3575 101° East 514 592 37,000 -1,980 Level FlightAware ADS-B
05:48AM 51.6632 -1.2866 101° East 486 559 35,400  Descending FlightAware UK
05:48AM 51.6570 -1.2414 101° East 515 593 37,000  Climbing FlightAware ADS-B
05:48AM 51.6488 -1.1735 101° East 486 559 35,400  Descending FlightAware UK
05:49AM 51.6427 -1.1286 101° East 515 593 37,000 2,160 Climbing FlightAware ADS-B
05:49AM 51.6277 -1.0124 102° East 517 595 37,000  Level FlightAware ADS-B
05:50AM 51.6127 -0.8957 102° East 518 596 37,000 -2,100 Level FlightAware ADS-B
05:50AM 51.6053 -0.8346 102° East 494 568 35,400  Descending FlightAware UK
05:50AM 51.5974 -0.7755 102° East 517 595 37,000  Climbing FlightAware ADS-B
05:51AM 51.5845 -0.6771 102° East 498 573 35,400  Descending FlightAware UK
05:51AM 51.5815 -0.6554 102° East 517 595 37,000 2,520 Climbing FlightAware ADS-B
05:51AM 51.5658 -0.5354 102° East 516 594 37,000  Level FlightAware ADS-B
05:52AM 51.5507 -0.4231 102° East 516 594 37,000  Level FlightAware ADS-B
05:52AM 51.5356 -0.3110 102° East 517 595 37,000 -2,100 Level FlightAware ADS-B
05:53AM 51.5274 -0.2486 102° East 488 562 35,400  Descending FlightAware UK
05:53AM 51.5201 -0.1986 102° East 518 596 37,000  Climbing FlightAware ADS-B
05:53AM 51.5087 -0.1133 102° East 492 566 35,400  Descending FlightAware UK
05:53AM 51.5036 -0.0748 102° East 518 596 37,000 2,340 Climbing FlightAware ADS-B
05:54AM 51.4876 0.0415 102° East 520 598 37,000 -1,920 Level FlightAware ADS-B
05:54AM 51.4780 0.1118 102° East 488 562 35,400  Descending FlightAware UK
05:54AM 51.4713 0.1583 102° East 522 601 37,000 2,220 Climbing FlightAware ADS-B
05:55AM 51.4553 0.2712 103° East 524 603 37,000  Level FlightAware ADS-B
05:55AM 51.4410 0.3730 103° East 523 602 37,000  Level FlightAware
05:56AM 51.4130 0.5700 103° East 523 602 37,000 -1,380 Level FlightAware
05:57AM 51.4008 0.6563 103° East 496 571 35,400  Descending FlightAware UK
05:57AM 51.3899 0.7313 103° East 522 601 37,000 1,860 Climbing FlightAware ADS-B
05:57AM 51.3732 0.8475 103° East 522 601 37,000  Level FlightAware ADS-B
05:58AM 51.3566 0.9604 103° East 523 602 37,000 -1,740 Level FlightAware ADS-B
05:58AM 51.3416 1.0632 103° East 496 571 35,400 -2,100 Descending FlightAware UK
05:59AM 51.3315 1.1315 103° East 494 568 35,400  Level FlightAware UK
05:59AM 51.3215 1.1991 103° East 494 568 35,400 4,320 Level FlightAware UK
05:59AM 51.3250 1.1780 103° East 521 600 37,000 2,820 Climbing FlightAware
06:00AM 51.3060 1.3050 103° East 521 600 37,000 -1,920 Level FlightAware
06:00AM 51.2909 1.4023 103° East 502 578 35,400  Descending FlightAware UK
06:00AM 51.2800 1.4740 103° East 519 597 37,000  Climbing FlightAware
06:01AM 51.2535 1.6488 103° East 496 571 35,400 -1,680 Descending FlightAware UK
06:01AM 51.2420 1.7161 105° East 494 568 35,400  Level FlightAware UK
06:02AM 51.2155 1.7997 117° Southeast 494 568 35,400 2,640 Level FlightAware UK
06:02AM 51.2080 1.8240 117° Southeast 530 610 37,000  Climbing FlightAware
06:02AM 51.1825 1.9040 117° Southeast 494 568 35,400 -2,340 Descending FlightAware UK
06:03AM 51.1565 1.9879 116° Southeast 500 575 35,400 3,540 Level FlightAware UK
06:03AM 51.1570 1.9880 116° Southeast 531 611 37,000  Climbing FlightAware
06:03AM 51.1372 2.0509 116° Southeast 498 573 35,400 -2,940 Descending FlightAware UK
06:03AM 51.1187 2.1155 115° Southeast 494 568 35,400  Level FlightAware UK
06:03AM 51.1056 2.1609 115° Southeast 37,000  Climbing FlightAware ADS-B
06:04AM 51.0820 2.2429 115° Southeast 494 568 35,400  Descending FlightAware UK
06:04AM 51.0719 2.2773 115° Southeast 530 610 37,000  Climbing FlightAware ADS-B
06:04AM 51.0511 2.3501 115° Southeast 494 568 35,400  Descending FlightAware UK
06:05AM 51.0360 2.4010 115° Southeast 525 604 37,000  Climbing FlightAware
06:05AM 51.0147 2.4766 115° Southeast 498 573 35,400 -2,940 Descending FlightAware UK
06:05AM 50.9964 2.5403 114° Southeast 498 573 35,400 3,840 Level FlightAware UK
06:05AM 50.9930 2.5500 114° Southeast 530 610 37,000  Climbing FlightAware
06:06AM 50.9659 2.6465 114° Southeast 500 575 35,400 -1,680 Descending FlightAware UK
06:06AM 50.9267 2.7721 116° Southeast 498 573 35,400 1,680 Level FlightAware UK
06:07AM 50.9080 2.8290 116° Southeast 527 606 37,000  Climbing FlightAware
06:07AM 50.8866 2.8973 116° Southeast 496 571 35,400 -2,880 Descending FlightAware UK
06:07AM 50.8669 2.9598 117° Southeast 496 571 35,400 3,960 Level FlightAware UK
06:07AM 50.8640 2.9680 117° Southeast 530 610 37,000  Climbing FlightAware
06:08AM 50.8407 3.0432 117° Southeast 496 571 35,400 -2,700 Descending FlightAware UK
06:08AM 50.8210 3.1056 117° Southeast 496 571 35,400 3,540 Level FlightAware UK
06:08AM 50.8220 3.1000 117° Southeast 527 606 37,000  Climbing FlightAware
06:08AM 50.7879 3.2103 117° Southeast 494 568 35,400  Descending FlightAware UK
06:09AM 50.7780 3.2390 117° Southeast 527 606 37,000 2,340 Climbing FlightAware
06:09AM 50.7424 3.3526 116° Southeast 533 613 37,000 -1,500 Level FlightAware ADS-B
06:10AM 50.7013 3.4799 116° Southeast 498 573 35,400 -1,320 Descending FlightAware UK
06:10AM 50.6617 3.6046 117° Southeast 496 571 35,400 2,640 Level FlightAware UK
06:10AM 50.6670 3.5880 117° Southeast 532 612 37,000 7,980 Climbing FlightAware
06:10AM 50.6482 3.6432 118° Southeast 533 613 37,000 -2,700 Level FlightAware ADS-B
06:11AM 50.6216 3.7289 118° Southeast 502 578 35,400 -2,340 Descending FlightAware UK
06:11AM 50.6015 3.7911 117° Southeast 498 573 35,400 1,380 Level FlightAware UK
06:12AM 50.5480 3.9500 117° Southeast 534 615 37,000  Climbing FlightAware
06:13AM 50.5004 4.1014 117° Southeast 500 575 35,400  Descending FlightAware UK
06:13AM 50.4990 4.1050 117° Southeast 534 615 37,000  Climbing FlightAware
06:13AM 50.4728 4.1835 117° Southeast 1 1 35,400  Descending FlightAware UK
06:13AM 50.4600 4.2180 117° Southeast 534 615 37,000  Climbing FlightAware
06:14AM 50.4238 4.3265 117° Southeast 1 1 35,400  Descending FlightAware UK
06:14AM 50.4060 4.3830 117° Southeast 530 610 37,000  Climbing FlightAware
06:14AM 50.3904 4.4309 117° Southeast 1 1 35,400  Descending FlightAware UK
06:15AM 50.3480 4.5570 118° Southeast 531 611 37,000 1,320 Climbing FlightAware
06:15AM 50.3130 4.6620 118° Southeast 530 610 37,000  Level FlightAware
06:16AM 50.2670 4.7980 118° Southeast 530 610 37,000  Level FlightAware
06:17AM 50.2350 4.8920 118° Southeast 530 610 37,000  Level FlightAware
06:17AM 50.1820 5.0470 118° Southeast 528 608 37,000  Level FlightAware
06:19AM 50.0800 5.3440 118° Southeast 520 598 37,000  Level FlightAware
06:20AM 50.0340 5.4760 118° Southeast 517 595 37,000  Level FlightAware
06:21AM 49.9570 5.6960 118° Southeast 514 592 37,000  Level FlightAware
06:21AM 49.9160 5.8130 119° Southeast 516 594 37,000  Level FlightAware
06:22AM 49.8310 6.0550 118° Southeast 520 598 37,000  Level FlightAware
06:23AM 49.7730 6.2180 119° Southeast 518 596 37,000  Level FlightAware
06:24AM 49.7220 6.3570 120° Southeast 517 595 37,000  Level FlightAware
06:25AM 49.6630 6.5210 119° Southeast 516 594 37,000  Level FlightAware
06:27AM 49.5478 6.8366 119° Southeast  Level Estimated
06:27AM 49.5310 6.8190 119° Southeast 515 593 37,000  Level FlightAware
06:27AM 49.4660 6.9620 125° Southeast 515 593 37,000  Level FlightAware
06:28AM 49.4080 7.0880 125° Southeast 515 593 37,000  Level FlightAware
06:29AM 49.3150 7.2860 126° Southeast 516 594 37,000  Level FlightAware
06:30AM 49.2520 7.4210 126° Southeast 520 598 37,000  Level FlightAware
06:31AM 49.1660 7.6050 126° Southeast 510 587 37,000  Level FlightAware
06:32AM 49.1120 7.7190 126° Southeast 516 594 37,000  Level FlightAware
06:32AM 49.0360 7.8780 126° Southeast 517 595 37,000  Level FlightAware
06:33AM 48.9810 7.9930 126° Southeast 517 595 37,000  Level FlightAware
06:34AM 48.8900 8.1830 126° Southeast 516 594 37,000  Level FlightAware
06:35AM 48.8160 8.3340 127° Southeast 515 593 37,000 -60 Level FlightAware
06:36AM 48.7430 8.4820 127° Southeast 516 594 36,900  Descending FlightAware
06:36AM 48.7000 8.5690 127° Southeast 515 593 37,000  Climbing FlightAware
06:38AM 48.5360 8.9020 127° Southeast 518 596 37,000  Level FlightAware
06:39AM 48.4790 9.0180 127° Southeast 513 590 37,000  Level FlightAware
06:40AM 48.4300 9.1160 127° Southeast 515 593 37,000  Level FlightAware
06:40AM 48.3530 9.2680 127° Southeast 516 594 37,000  Level FlightAware
06:41AM 48.3170 9.3380 128° Southeast 517 595 37,000  Level FlightAware
06:42AM 48.2560 9.4500 129° Southeast 520 598 37,000  Level FlightAware
06:42AM 48.1930 9.5420 136° Southeast 518 596 37,000  Level FlightAware
06:43AM 48.1440 9.6060 139° Southeast 518 596 37,000  Level FlightAware
06:43AM 48.0520 9.7240 139° Southeast 518 596 37,000  Level FlightAware
06:44AM 47.9730 9.8260 139° Southeast 515 593 37,000  Level FlightAware
06:46AM 47.7980 10.0410 140° Southeast 514 592 37,000  Level FlightAware
06:46AM 47.7370 10.1090 143° Southeast 514 592 37,000  Level FlightAware
06:47AM 47.6840 10.1680 143° Southeast 514 592 37,000  Level FlightAware
06:48AM 47.5980 10.2620 144° Southeast 509 586 37,000  Level FlightAware
06:48AM 47.5070 10.3630 143° Southeast 508 585 37,000  Level FlightAware
06:49AM 47.4310 10.4440 144° Southeast 512 589 37,000  Level FlightAware
06:50AM 47.3550 10.5140 148° Southeast 509 586 37,000  Level FlightAware
06:50AM 47.2480 10.6000 151° Southeast 507 583 37,000  Level FlightAware
06:52AM 47.0210 10.7490 156° South 506 582 37,000  Level FlightAware
06:53AM 46.9510 10.8160 147° Southeast 500 575 37,000  Level FlightAware
06:53AM 46.8790 10.8920 144° Southeast 498 573 37,000  Level FlightAware
06:54AM 46.8300 10.9440 144° Southeast 496 571 37,000  Level FlightAware
06:55AM 46.7730 11.0130 140° Southeast 504 580 37,000  Level FlightAware
06:55AM 46.7100 11.1090 134° Southeast 497 572 37,000  Level FlightAware
06:56AM 46.6410 11.2170 133° Southeast 497 572 37,000  Level FlightAware
06:57AM 46.5370 11.3770 133° Southeast 498 573 37,000  Level FlightAware
06:58AM 46.4730 11.4750 133° Southeast 499 574 37,000  Level FlightAware
06:58AM 46.3850 11.6070 134° Southeast 507 583 37,000  Level FlightAware
06:59AM 46.3480 11.6630 134° Southeast 507 583 37,000  Level FlightAware
07:00AM 46.2440 11.8180 134° Southeast 509 586 37,000  Level FlightAware
07:01AM 46.1110 12.0180 134° Southeast 509 586 37,000  Level FlightAware
07:02AM 46.0520 12.1110 132° Southeast 509 586 37,000  Level FlightAware
07:03AM 45.9900 12.2100 132° Southeast 506 582 37,000  Level FlightAware
07:03AM 45.9030 12.3460 133° Southeast 502 578 37,000  Level FlightAware
07:05AM 45.7680 12.5530 133° Southeast 502 578 37,000  Level FlightAware
07:05AM 45.7610 12.5650 130° Southeast 502 578 37,000  Level FlightAware
07:06AM 45.6500 12.7350 133° Southeast 501 577 37,000  Level FlightAware
07:07AM 45.6150 12.7880 133° Southeast 500 575 37,000  Level FlightAware
07:09AM 45.4689 13.1351 121° Southeast  Level Estimated
07:09AM 45.4210 13.0820 121° Southeast 496 571 37,000  Level FlightAware
07:09AM 45.3550 13.1830 133° Southeast 496 571 37,000  Level FlightAware
07:10AM 45.2950 13.2710 134° Southeast 503 579 37,000  Level FlightAware
07:10AM 45.2520 13.3410 131° Southeast 499 574 37,000  Level FlightAware
07:12AM 45.0580 13.6730 121° Southeast 504 580 37,000  Level FlightAware
07:13AM 45.0929 13.7146 121° Southeast  Level Estimated
07:13AM 44.9930 13.7880 129° Southeast 503 579 37,000  Level FlightAware
07:14AM 44.9180 13.9190 129° Southeast 508 585 37,000  Level FlightAware
07:15AM 44.8760 13.9940 128° Southeast 508 585 37,000  Level FlightAware
07:15AM 44.8200 14.0910 129° Southeast 507 583 37,000  Level FlightAware
07:16AM 44.7450 14.2220 129° Southeast 506 582 37,000  Level FlightAware
07:16AM 44.7070 14.2880 129° Southeast 506 582 37,000  Level FlightAware
07:17AM 44.6530 14.3800 130° Southeast 506 582 37,000  Level FlightAware
07:18AM 44.5870 14.4920 130° Southeast 506 582 37,000 180 Level FlightAware
07:19AM 44.5210 14.6060 129° Southeast 508 585 37,300 600 Climbing FlightAware
07:19AM 44.4480 14.7310 129° Southeast 510 587 38,000 780 Climbing FlightAware
07:20AM 44.3840 14.8390 130° Southeast 513 590 38,500 720 Climbing FlightAware
07:20AM 44.3530 14.8990 126° Southeast 512 589 38,800 240 Climbing FlightAware
07:22AM 44.2430 15.1180 125° Southeast 519 597 39,000 60 Climbing FlightAware
07:22AM 44.2170 15.1670 127° Southeast 39,000  Level FlightAware
07:23AM 44.1390 15.3180 126° Southeast 517 595 39,000  Level FlightAware
07:24AM 44.0820 15.4260 126° Southeast 516 594 39,000  Level FlightAware
07:24AM 44.0360 15.5180 125° Southeast 514 592 39,000  Level FlightAware
07:25AM 43.9820 15.6220 126° Southeast 511 588 39,000  Level FlightAware
07:26AM 43.9260 15.7310 125° Southeast 510 587 39,000  Level FlightAware
07:26AM 43.8590 15.8620 125° Southeast 507 583 39,000  Level FlightAware
07:27AM 43.8050 15.9650 126° Southeast 510 587 39,000  Level FlightAware
07:28AM 43.7150 16.1370 126° Southeast 510 587 39,000  Level FlightAware
07:29AM 43.6430 16.2740 126° Southeast 510 587 39,000  Level FlightAware
07:30AM 43.5770 16.3980 126° Southeast 506 582 39,000  Level FlightAware
07:30AM 43.5170 16.5140 125° Southeast 507 583 39,000  Level FlightAware
07:31AM 43.4710 16.6010 126° Southeast 507 583 39,000  Level FlightAware
07:31AM 43.4360 16.6640 127° Southeast 507 583 39,000  Level FlightAware
07:33AM 43.3380 16.8480 126° Southeast 513 590 39,000  Level FlightAware
07:34AM 43.2570 17.0000 126° Southeast 514 592 39,000  Level FlightAware
07:34AM 43.2080 17.0920 126° Southeast 515 593 39,000  Level FlightAware
07:35AM 43.1570 17.1860 127° Southeast 516 594 39,000  Level FlightAware
07:35AM 43.0900 17.3070 127° Southeast 516 594 39,000  Level FlightAware
07:36AM 43.0420 17.3960 126° Southeast 518 596 39,000  Level FlightAware
07:37AM 43.0010 17.4720 126° Southeast 518 596 39,000  Level FlightAware
07:37AM 42.9410 17.5790 127° Southeast 518 596 39,000  Level FlightAware
07:39AM 42.7880 17.8560 127° Southeast 518 596 39,000  Level FlightAware
07:40AM 42.7340 17.9550 127° Southeast 518 596 39,000  Level FlightAware
07:40AM 42.6790 18.0530 127° Southeast 519 597 39,000  Level FlightAware
07:41AM 42.6280 18.1430 128° Southeast 519 597 39,000  Level FlightAware
07:42AM 42.5600 18.2620 128° Southeast 517 595 39,000  Level FlightAware
07:42AM 42.4990 18.3510 133° Southeast 514 592 39,000  Level FlightAware
07:43AM 42.4310 18.4420 135° Southeast 514 592 39,000  Level FlightAware
07:44AM 42.3480 18.5560 135° Southeast 515 593 39,000  Level FlightAware
07:44AM 42.2800 18.6470 135° Southeast 516 594 39,000  Level FlightAware
07:45AM 42.1780 18.7830 135° Southeast 517 595 39,000  Level FlightAware
07:46AM 42.1400 18.8320 136° Southeast 518 596 39,000  Level FlightAware
07:47AM 42.0400 18.9640 136° Southeast 519 597 39,000  Level FlightAware
07:47AM 41.9720 19.0550 135° Southeast 519 597 39,000  Level FlightAware
07:48AM 41.8990 19.1510 136° Southeast 519 597 39,000  Level FlightAware
07:49AM 41.7680 19.3190 136° Southeast 518 596 39,000  Level FlightAware
07:50AM 41.7290 19.3670 137° Southeast 518 596 39,000  Level FlightAware
07:51AM 41.6460 19.4760 136° Southeast 517 595 39,000  Level FlightAware
07:52AM 41.5020 19.6620 136° Southeast 516 594 39,000  Level FlightAware
07:52AM 41.4480 19.7290 137° Southeast 516 594 39,000  Level FlightAware
07:53AM 41.3510 19.8520 136° Southeast 517 595 39,000  Level FlightAware
07:54AM 41.2950 19.9220 137° Southeast 517 595 39,000  Level FlightAware
07:54AM 41.2400 19.9910 137° Southeast 518 596 39,000  Level FlightAware
07:55AM 41.1700 20.0790 137° Southeast 518 596 39,000  Level FlightAware
07:56AM 41.0320 20.2510 137° Southeast 519 597 39,000  Level FlightAware
07:58AM 40.8200 20.5100 123° Southeast 516 594 39,000  Level FlightAware
07:59AM 40.8699 20.5808 123° Southeast  Level Estimated
07:59AM 40.7490 20.6000 136° Southeast 515 593 39,000  Level FlightAware
08:00AM 40.6890 20.6730 137° Southeast 515 593 39,000  Level FlightAware
08:01AM 40.5380 20.8570 137° Southeast 510 587 39,000  Level FlightAware
08:02AM 40.4140 21.0080 137° Southeast 511 588 39,000  Level FlightAware
08:03AM 40.3590 21.0740 138° Southeast 512 589 39,000  Level FlightAware
08:04AM 40.2830 21.1650 138° Southeast 510 587 39,000  Level FlightAware
08:04AM 40.2300 21.2300 137° Southeast 508 585 39,000  Level FlightAware
08:07AM 40.0437 21.6106 123° Southeast  Level Estimated
08:07AM 39.9260 21.5910 123° Southeast 513 590 39,000  Level FlightAware
08:08AM 39.8670 21.6580 139° Southeast 512 589 39,000  Level FlightAware
08:08AM 39.8170 21.7120 140° Southeast 513 590 39,000  Level FlightAware
08:09AM 39.7460 21.7930 139° Southeast 514 592 39,000  Level FlightAware
08:10AM 39.6450 21.9060 139° Southeast 514 592 39,000  Level FlightAware
08:10AM 39.5600 22.0000 140° Southeast 516 594 39,000  Level FlightAware
08:11AM 39.4610 22.1110 139° Southeast 512 589 39,000  Level FlightAware
08:12AM 39.3780 22.2020 140° Southeast 510 587 39,000  Level FlightAware
08:13AM 39.3060 22.2820 139° Southeast 511 588 39,000  Level FlightAware
08:13AM 39.2520 22.3420 139° Southeast 511 588 39,000  Level FlightAware
08:14AM 39.1700 22.4330 139° Southeast 511 588 39,000  Level FlightAware
08:17AM 38.9760 22.8384 122° Southeast  Level Estimated
08:17AM 38.8630 22.7660 122° Southeast 512 589 39,000  Level FlightAware
08:17AM 38.7920 22.8440 139° Southeast 520 598 39,000  Level FlightAware
08:18AM 38.7180 22.9230 140° Southeast 520 598 39,000  Level FlightAware
08:18AM 38.6700 22.9750 140° Southeast 521 600 39,000  Level FlightAware
08:19AM 38.5800 23.0720 140° Southeast 522 601 39,000  Level FlightAware
08:20AM 38.5150 23.1420 140° Southeast 521 600 39,000  Level FlightAware
08:20AM 38.4580 23.2030 140° Southeast 522 601 39,000  Level FlightAware
08:21AM 38.3950 23.2700 140° Southeast 523 602 39,000  Level FlightAware
08:22AM 38.2900 23.3810 140° Southeast 521 600 39,000  Level FlightAware
08:22AM 38.2370 23.4380 140° Southeast 521 600 39,000  Level FlightAware
08:23AM 38.1510 23.5280 141° Southeast 521 600 39,000  Level FlightAware
08:24AM 38.0510 23.6340 140° Southeast 522 601 39,000  Level FlightAware
08:25AM 37.9960 23.6900 141° Southeast 523 602 39,000  Level FlightAware
08:25AM 37.9280 23.7630 140° Southeast 526 605 39,000  Level FlightAware
08:26AM 37.8750 23.8270 136° Southeast 526 605 39,000  Level FlightAware
08:27AM 37.7890 23.9500 131° Southeast 530 610 39,000  Level FlightAware
08:27AM 37.7310 24.0380 130° Southeast 528 608 39,000  Level FlightAware
08:28AM 37.6770 24.1200 130° Southeast 527 606 39,000  Level FlightAware
08:29AM 37.5840 24.2590 130° Southeast 526 605 39,000  Level FlightAware
08:29AM 37.5270 24.3590 126° Southeast 529 609 39,000  Level FlightAware
08:30AM 37.4870 24.4370 123° Southeast 527 606 39,000  Level FlightAware
08:31AM 37.4240 24.5640 122° Southeast 527 606 39,000  Level FlightAware
08:32AM 37.3510 24.7090 122° Southeast 526 605 39,000  Level FlightAware
08:33AM 37.2790 24.8510 122° Southeast 525 604 39,000  Level FlightAware
08:33AM 37.2300 24.9490 122° Southeast 525 604 39,000  Level FlightAware
08:34AM 37.1860 25.0370 122° Southeast 525 604 39,000  Level FlightAware
08:35AM 37.1090 25.1910 122° Southeast 525 604 39,000  Level FlightAware
08:36AM 37.0660 25.2790 121° Southeast 525 604 39,000  Level FlightAware
08:38AM 36.9360 25.5623 120° Southeast  Level Estimated
08:38AM 36.8410 25.7310 120° Southeast 531 611 39,000  Level FlightAware
08:39AM 36.8010 25.8130 121° Southeast 531 611 39,000  Level FlightAware
08:39AM 36.7520 25.9100 122° Southeast 530 610 39,000  Level FlightAware
08:41AM 36.6550 26.1040 122° Southeast 530 610 39,000  Level FlightAware
08:41AM 36.5850 26.2420 122° Southeast 530 610 39,000  Level FlightAware
08:43AM 36.5010 26.4090 122° Southeast 531 611 39,000  Level FlightAware
08:44AM 36.3990 26.6080 122° Southeast 531 611 39,000  Level FlightAware
08:45AM 36.3460 26.7140 122° Southeast 531 611 39,000  Level FlightAware
08:45AM 36.3020 26.8010 122° Southeast 531 611 39,000  Level FlightAware
08:46AM 36.2460 26.9110 122° Southeast 531 611 39,000  Level FlightAware
08:47AM 36.2020 26.9990 122° Southeast 531 611 39,000  Level FlightAware
08:47AM 36.1580 27.0870 122° Southeast 531 611 39,000  Level FlightAware
08:48AM 36.1130 27.1750 122° Southeast 531 611 39,000  Level FlightAware
08:49AM 36.0470 27.3060 122° Southeast 531 611 39,000  Level FlightAware
08:50AM 36.0140 27.3720 122° Southeast 531 611 39,000  Level FlightAware
08:50AM 35.9810 27.4370 122° Southeast 531 611 39,000  Level FlightAware
08:51AM 35.9250 27.5470 122° Southeast 531 611 39,000  Level FlightAware
08:52AM 35.8810 27.6340 122° Southeast 531 611 39,000  Level FlightAware
08:52AM 35.8370 27.7220 122° Southeast 531 611 39,000  Level FlightAware
08:53AM 35.6350 28.0800 125° Southeast 538 619 39,000  Level FlightAware
08:54AM 35.5690 28.2020 124° Southeast 538 619 39,000  Level FlightAware
08:55AM 35.5130 28.3040 124° Southeast 539 620 39,000  Level FlightAware
08:56AM 35.4120 28.4930 123° Southeast 539 620 39,000  Level FlightAware
08:57AM 35.3310 28.6450 123° Southeast 540 621 39,000  Level FlightAware
08:58AM 35.2520 28.7890 124° Southeast 541 623 39,000  Level FlightAware
08:59AM 35.1820 28.9170 124° Southeast 540 621 39,000  Level FlightAware
09:00AM 35.1210 29.0290 124° Southeast 540 621 39,000  Level FlightAware
09:00AM 35.0680 29.1290 123° Southeast 540 621 39,000  Level FlightAware
09:01AM 35.0330 29.1940 123° Southeast 540 621 39,000  Level FlightAware
09:02AM 34.9640 29.3240 123° Southeast 540 621 39,000  Level FlightAware
09:02AM 34.9180 29.4110 123° Southeast 540 621 39,000  Level FlightAware
09:03AM 34.8830 29.4770 123° Southeast 540 621 39,000  Level FlightAware
09:04AM 34.8370 29.5630 123° Southeast 540 621 39,000  Level FlightAware
09:04AM 34.7900 29.6500 123° Southeast 540 621 39,000  Level FlightAware
09:05AM 34.7560 29.7150 122° Southeast 540 621 39,000  Level FlightAware
09:06AM 34.6980 29.8230 123° Southeast 540 621 39,000  Level FlightAware
09:07AM 34.6170 29.9750 123° Southeast 540 621 39,000  Level FlightAware
09:07AM 34.5710 30.0620 123° Southeast 540 621 39,000  Level FlightAware
09:08AM 34.5240 30.1480 124° Southeast 540 621 39,000  Level FlightAware
09:09AM 34.4900 30.2130 122° Southeast 540 621 39,000  Level FlightAware
09:09AM 34.4430 30.2990 124° Southeast 540 621 39,000 -720 Level FlightAware
09:12AM 34.2762 30.6318 121° Southeast  Level Estimated
09:13AM 34.2007 30.7815 121° Southeast  Level Estimated
09:14AM 34.1250 30.9309 121° Southeast  Level Estimated
09:15AM 34.0491 31.0801 122° Southeast  Level Estimated
09:16AM 33.9731 31.2290 122° Southeast  Level Estimated
09:17AM 33.8968 31.3776 122° Southeast  Level Estimated
09:18AM 33.8204 31.5260 122° Southeast  Level Estimated
09:19AM 33.7438 31.6741 122° Southeast  Level Estimated
09:20AM 33.6670 31.8219 122° Southeast  Level Estimated
09:21AM 33.5901 31.9695 122° Southeast  Level Estimated
09:22AM 33.5130 32.1168 122° Southeast  Level Estimated
09:23AM 33.4357 32.2638 122° Southeast  Level Estimated
09:24AM 33.3582 32.4106 122° Southeast  Level Estimated
09:25AM 33.2804 32.5574 122° Southeast  Level Estimated
09:26AM 33.2025 32.7039 122° Southeast  Level Estimated
09:26AM 33.1390 32.9140 122° Southeast 454 522 27,600  Level FlightAware
09:27AM 33.0840 33.0220 121° Southeast 454 522 27,600 -1,440 Level FlightAware
09:27AM 33.0430 33.0980 123° Southeast 441 507 25,600 -1,620 Descending FlightAware
09:28AM 33.0010 33.1820 121° Southeast 441 507 25,600 -900 Level FlightAware
09:29AM 32.9230 33.3020 128° Southeast 440 506 24,100 -900 Descending FlightAware
09:30AM 32.8830 33.3690 125° Southeast 440 506 24,100 -2,100 Level FlightAware
09:30AM 32.8430 33.4370 125° Southeast 426 490 21,700 -3,840 Descending FlightAware
09:31AM 32.8040 33.5040 125° Southeast 425 489 20,300 -2,340 Descending FlightAware
09:31AM 32.7500 33.5950 125° Southeast 416 479 18,600 -2,220 Descending FlightAware
09:32AM 32.6900 33.6970 125° Southeast 408 470 16,500 -2,280 Descending FlightAware
09:33AM 32.6440 33.7750 125° Southeast 399 459 14,800 -1,980 Descending FlightAware
09:34AM 32.5930 33.8600 125° Southeast 393 452 13,600 -1,620 Descending FlightAware
09:34AM 32.5550 33.9210 126° Southeast 386 444 12,700 -1,440 Descending FlightAware
09:35AM 32.5150 33.9880 125° Southeast 382 440 11,800 -1,440 Descending FlightAware
09:36AM 32.4900 34.0310 125° Southeast 378 435 11,200 -1,320 Descending FlightAware
09:36AM 32.4500 34.0970 126° Southeast 364 419 10,400 -720 Descending FlightAware
09:37AM 32.4110 34.1620 125° Southeast 324 373 10,200 -480 Descending FlightAware
09:38AM 32.3490 34.2640 126° Southeast 285 328 9,500 -720 Descending FlightAware
09:39AM 32.3230 34.3070 126° Southeast 282 325 8,900 -960 Descending FlightAware
09:39AM 32.3020 34.3420 125° Southeast 279 321 8,500 -360 Descending FlightAware
09:40AM 32.2710 34.3940 125° Southeast 279 321 8,500  Level FlightAware
09:40AM 32.2650 34.4040 125° Southeast 279 321 8,500  Level FlightAware
09:41AM 32.2400 34.4470 124° Southeast 279 321 8,500  Level FlightAware
09:41AM 32.2270 34.4680 126° Southeast 279 321 8,500  Level FlightAware
09:44AM 32.0494 34.8021 140° Southeast  Level Estimated
09:45AM 32.0000 34.8667 140° Southeast  Level FlightAware Approximate
09:46AM 32.0095 34.8769 140° Southeast  Level Estimated
09:47AM 32.0095 34.8769 140° Southeast  Level Estimated
09:48AM 32.0095 34.8769 140° Southeast  Level Estimated
09:49AM 32.0095 34.8769 140° Southeast  Level Estimated
09:50AM 32.0095 34.8769 140° Southeast  Level Estimated
09:51AM 32.0095 34.8769 140° Southeast  Level Estimated
09:52AM 32.0095 34.8769 140° Southeast  Level Estimated